Terminal Aerodrome Forecast
Issued by NWS

Home | Current Version | Previous Version | Graphics & Text | Print | Product List | Glossary On
Versions: 1 2 3 4 5 6 7 8 9 10 11 12 13 14 15 16 17 18 19 20
099
FTUS43 KMPX 231125
TAFRWF
TAF
KRWF 231125Z 2312/2412 29005KT P6SM OVC015
     FM231900 VRB03KT P6SM OVC025
     FM240100 14005KT P6SM OVC025
     FM240800 12006KT P6SM SCT025 OVC050
      TEMPO 2410/2412 2SM -SN BR OVC020=

USA.gov is the U.S. government's official web portal to all federal, state and local government web resources and services.